Time;durP1;ratioP1;P1;durP2;ratioP2;P2;SDS_P1;SDS_P2;PMS_P1;PMS_P2;Temp;Humidity;BMP_temperature;BMP_pressure;BME280_temperature;BME280_humidity;BME280_pressure;Samples;Min_cycle;Max_cycle;Signal;HPM_P1;HPM_P2
2021/06/13 07:13:41;;;;;;;;;8.25;6.00;;;;;19.65;52.81;102584.31;5195748;23;45488;-69
2021/06/13 07:16:06;;;;;;;;;10.00;7.00;;;;;19.71;52.12;102587.63;4977874;28;46716;-67
2021/06/13 07:18:31;;;;;;;;;6.50;6.00;;;;;19.72;51.75;102582.25;4972841;28;47220;-67
2021/06/13 07:20:57;;;;;;;;;8.75;6.75;;;;;19.75;52.02;102589.25;4980623;28;45462;-67
2021/06/13 07:23:22;;;;;;;;;6.00;6.00;;;;;19.77;51.27;102577.59;4983733;28;45234;-67
2021/06/13 07:25:48;;;;;;;;;5.50;5.50;;;;;19.81;50.81;102588.09;4961992;28;45206;-67
2021/06/13 07:28:14;;;;;;;;;8.00;6.00;;;;;19.82;50.22;102585.41;4963384;28;45896;-70
2021/06/13 07:30:40;;;;;;;;;6.00;5.00;;;;;19.87;50.65;102598.53;4983504;28;46783;-70
2021/06/13 07:33:06;;;;;;;;;8.00;6.00;;;;;19.92;49.62;102595.66;4980175;28;45539;-70
2021/06/13 07:35:32;;;;;;;;;5.50;4.75;;;;;19.94;49.26;102597.34;4978756;28;45372;-70
2021/06/13 07:38:00;;;;;;;;;6.25;5.50;;;;;19.96;49.50;102603.47;4974984;28;45447;-67
2021/06/13 07:40:26;;;;;;;;;6.00;5.50;;;;;20.00;50.10;102589.03;4971894;28;45301;-67
2021/06/13 07:42:51;;;;;;;;;8.75;6.00;;;;;20.11;50.02;102585.06;4965400;28;45478;-67
2021/06/13 07:45:16;;;;;;;;;7.00;3.00;;;;;20.21;49.25;102590.88;4982454;28;45291;-67
2021/06/13 07:47:42;;;;;;;;;5.00;5.00;;;;;20.28;49.26;102586.13;4980052;28;45582;-67
2021/06/13 07:50:10;;;;;;;;;5.00;5.00;;;;;20.32;48.98;102582.38;4978458;28;46202;-67
2021/06/13 07:52:36;;;;;;;;;6.75;6.75;;;;;20.30;48.32;102585.09;4969539;28;45377;-67
2021/06/13 07:55:04;;;;;;;;;6.75;6.25;;;;;20.33;48.41;102578.75;4979789;28;45412;-67
2021/06/13 07:57:29;;;;;;;;;6.00;4.00;;;;;20.39;48.72;102582.97;4977541;28;45478;-67
2021/06/13 07:59:54;;;;;;;;;6.00;5.00;;;;;20.48;48.21;102579.00;4976169;28;46225;-68
2021/06/13 08:02:20;;;;;;;;;6.75;6.75;;;;;20.52;47.85;102576.09;4963544;28;45463;-68
2021/06/13 08:05:00;;;;;;;;;7.50;7.50;;;;;20.55;49.04;102577.78;4976044;28;45356;-68
2021/06/13 08:07:26;;;;;;;;;7.50;6.25;;;;;20.64;48.79;102577.34;4971433;28;45392;-68
2021/06/13 08:09:51;;;;;;;;;5.50;5.00;;;;;20.69;47.73;102577.16;4964194;28;46428;-68
2021/06/13 08:12:18;;;;;;;;;7.25;5.00;;;;;20.72;47.85;102578.81;4981225;28;45351;-68
2021/06/13 08:14:43;;;;;;;;;7.50;5.00;;;;;20.75;47.80;102578.63;4979040;28;45394;-68
2021/06/13 08:17:09;;;;;;;;;7.00;7.00;;;;;20.82;46.99;102576.56;4981410;28;45466;-68
2021/06/13 08:19:34;;;;;;;;;7.25;6.00;;;;;20.87;47.01;102580.72;4981486;28;46548;-68
2021/06/13 08:21:59;;;;;;;;;7.50;5.50;;;;;20.89;47.04;102578.84;4986358;28;45504;-67
2021/06/13 08:24:25;;;;;;;;;7.75;5.50;;;;;20.91;46.96;102584.97;4975850;28;45292;-68
2021/06/13 08:26:50;;;;;;;;;6.00;6.00;;;;;20.94;47.54;102581.28;4975352;28;45446;-68
2021/06/13 08:29:16;;;;;;;;;6.00;6.00;;;;;20.97;46.89;102582.97;4980662;28;46734;-68
2021/06/13 08:31:41;;;;;;;;;5.00;5.00;;;;;20.99;47.19;102576.59;4977258;28;45447;-68
2021/06/13 08:34:07;;;;;;;;;7.00;6.00;;;;;21.04;47.32;102583.59;4972483;28;45515;-68
2021/06/13 08:36:33;;;;;;;;;4.00;4.00;;;;;21.06;45.56;102585.25;4970558;28;45201;-68
2021/06/13 08:38:58;;;;;;;;;4.50;4.50;;;;;21.08;46.46;102574.47;4962719;28;46300;-69
2021/06/13 08:41:24;;;;;;;;;5.50;5.50;;;;;21.12;45.44;102584.06;4968662;28;45848;-69
2021/06/13 08:43:50;;;;;;;;;6.00;4.75;;;;;21.14;45.38;102572.34;4971818;28;45400;-69
2021/06/13 08:46:17;;;;;;;;;5.25;5.25;;;;;21.19;46.52;102579.25;4965985;28;45325;-69
2021/06/13 08:48:48;;;;;;;;;5.25;4.00;;;;;21.25;46.56;102571.81;4976162;28;45434;-69
2021/06/13 08:51:14;;;;;;;;;5.00;4.00;;;;;21.33;45.33;102562.56;4973511;28;45752;-67
2021/06/13 08:53:44;;;;;;;;;6.00;5.00;;;;;21.37;44.81;102564.13;4963239;28;45378;-67
2021/06/13 08:56:15;;;;;;;;;5.00;5.00;;;;;21.43;45.01;102560.28;4972317;28;45463;-67
2021/06/13 08:58:42;;;;;;;;;3.75;3.75;;;;;21.46;45.32;102569.00;4974100;28;45688;-66
2021/06/13 09:01:10;;;;;;;;;3.50;3.50;;;;;21.52;44.83;102566.97;4973675;28;45524;-67
2021/06/13 09:03:36;;;;;;;;;3.00;3.00;;;;;21.54;44.59;102552.56;4975832;28;45485;-67
2021/06/13 09:06:02;;;;;;;;;5.00;5.00;;;;;21.54;44.40;102549.03;4978966;28;45472;-67
2021/06/13 09:08:38;;;;;;;;;5.00;5.00;;;;;21.64;44.90;102560.09;4971170;28;45352;-71
2021/06/13 09:11:06;;;;;;;;;5.25;4.75;;;;;21.71;45.33;102553.50;4971884;28;45754;-70
2021/06/13 09:13:34;;;;;;;;;4.25;4.25;;;;;21.77;45.41;102555.00;4966953;28;45404;-70
2021/06/13 09:16:03;;;;;;;;;6.25;5.50;;;;;21.83;44.40;102543.13;4974980;28;45471;-70
2021/06/13 09:18:47;;;;;;;;;3.75;3.50;;;;;21.88;44.82;102544.63;4968066;28;45434;-70
2021/06/13 09:21:26;;;;;;;;;3.50;3.50;;;;;21.94;43.70;102545.25;4979018;28;45522;-67
2021/06/13 09:23:51;;;;;;;;;3.25;3.25;;;;;21.93;43.68;102539.00;4977620;28;45455;-66
2021/06/13 09:26:19;;;;;;;;;8.50;4.25;;;;;21.98;44.60;102539.63;4979106;28;45299;-67
2021/06/13 09:28:49;;;;;;;;;4.25;4.25;;;;;22.01;43.67;102546.63;4975171;28;46330;-67
2021/06/13 09:31:20;;;;;;;;;4.75;4.75;;;;;22.03;43.91;102542.94;4970259;28;45523;-67
2021/06/13 09:33:49;;;;;;;;;6.25;5.00;;;;;22.06;43.27;102541.03;4962889;28;45293;-68
2021/06/13 09:36:20;;;;;;;;;7.75;4.75;;;;;22.11;43.84;102544.34;4969458;28;47208;-68
2021/06/13 09:38:47;;;;;;;;;4.00;4.00;;;;;22.16;42.93;102547.63;4976616;28;45707;-68
2021/06/13 09:41:17;;;;;;;;;4.50;4.50;;;;;22.22;43.41;102550.00;4975746;28;45472;-68
2021/06/13 09:43:53;;;;;;;;;3.00;3.00;;;;;22.25;42.45;102551.63;4978410;28;45265;-68
2021/06/13 09:46:31;;;;;;;;;4.50;4.50;;;;;22.25;42.79;102546.25;4979435;28;45464;-68
2021/06/13 09:49:04;;;;;;;;;7.75;6.25;;;;;22.29;41.98;102544.28;4980602;28;46263;-68
2021/06/13 09:51:34;;;;;;;;;4.00;4.00;;;;;22.30;42.31;102540.69;4979137;28;45668;-68
2021/06/13 09:54:03;;;;;;;;;4.75;4.75;;;;;22.31;42.33;102537.03;4979024;28;45473;-68
2021/06/13 09:56:32;;;;;;;;;3.00;3.00;;;;;22.31;42.49;102542.38;4979972;28;45301;-68
2021/06/13 09:59:08;;;;;;;;;7.00;4.50;;;;;22.34;43.40;102539.56;4967818;28;45301;-68
2021/06/13 10:01:51;;;;;;;;;7.25;7.25;;;;;22.38;43.56;102546.47;4975949;28;46045;-68
2021/06/13 10:04:20;;;;;;;;;7.00;7.00;;;;;22.42;43.10;102537.28;4975709;28;45432;-68
2021/06/13 10:06:47;;;;;;;;;17.25;14.00;;;;;22.43;43.35;102536.34;4979589;28;45513;-68
2021/06/13 10:09:14;;;;;;;;;34.75;32.00;;;;;22.49;43.74;102530.63;4971667;28;46404;-68
2021/06/13 10:11:40;;;;;;;;;7.25;5.00;;;;;22.53;43.22;102536.72;4960569;28;45607;-68
2021/06/13 10:14:10;;;;;;;;;5.50;5.50;;;;;22.60;42.51;102526.50;4968678;28;45393;-68
2021/06/13 10:16:49;;;;;;;;;8.50;8.00;;;;;22.62;44.18;102532.63;4978177;28;47328;-68
2021/06/13 10:19:17;;;;;;;;;14.25;14.25;;;;;22.62;42.30;102527.28;4979931;28;46451;-68
2021/06/13 10:21:49;;;;;;;;;26.50;19.50;;;;;22.64;42.44;102530.75;4984922;28;45525;-68
2021/06/13 10:24:17;;;;;;;;;6.00;6.00;;;;;22.70;41.13;102524.19;4979912;28;45348;-68
2021/06/13 10:26:48;;;;;;;;;10.00;8.00;;;;;22.75;42.14;102521.25;4978179;28;46546;-68
2021/06/13 10:29:14;;;;;;;;;7.75;6.25;;;;;22.79;41.53;102520.16;4977504;28;47228;-68
2021/06/13 10:31:42;;;;;;;;;8.50;7.25;;;;;22.85;41.68;102513.56;4979071;28;45542;-69
2021/06/13 10:34:08;;;;;;;;;9.25;9.25;;;;;22.92;41.30;102520.28;4976318;28;45171;-68
2021/06/13 10:36:36;;;;;;;;;9.25;8.75;;;;;22.91;41.87;102522.13;4960892;28;47028;-68
2021/06/13 10:39:07;;;;;;;;;45.00;37.75;;;;;22.94;41.29;102515.69;4973278;28;45453;-68
2021/06/13 10:41:32;;;;;;;;;32.50;29.00;;;;;23.02;40.96;102520.63;4979515;28;45214;-68
2021/06/13 10:44:04;;;;;;;;;19.50;15.00;;;;;23.10;41.78;102507.63;4977669;28;45315;-68
2021/06/13 10:46:31;;;;;;;;;7.75;4.25;;;;;23.06;41.35;102508.78;4977550;28;47183;-68
2021/06/13 10:48:59;;;;;;;;;13.50;13.00;;;;;23.06;40.92;102511.47;4979734;28;45532;-68
2021/06/13 10:51:45;;;;;;;;;10.00;10.00;;;;;23.10;40.84;102506.75;4979635;28;45296;-68
2021/06/13 10:54:27;;;;;;;;;4.75;4.75;;;;;23.14;39.61;102498.44;4976265;28;45310;-68
2021/06/13 10:57:12;;;;;;;;;14.50;14.00;;;;;23.22;40.24;102495.31;4978349;28;45348;-68
2021/06/13 10:59:40;;;;;;;;;12.50;10.50;;;;;23.27;40.92;102495.03;4975984;28;47558;-68
2021/06/13 11:02:14;;;;;;;;;7.25;7.00;;;;;23.30;40.86;102491.31;4974480;28;45458;-69
2021/06/13 11:04:43;;;;;;;;;6.25;4.50;;;;;23.32;38.01;102489.38;4978952;28;45498;-68
2021/06/13 11:07:10;;;;;;;;;5.25;5.25;;;;;23.34;38.63;102488.34;4979564;28;45432;-68
2021/06/13 11:10:13;;;;;;;;;6.25;6.25;;;;;23.38;39.22;102483.66;4980088;28;46650;-68
2021/06/13 11:13:00;;;;;;;;;5.25;5.25;;;;;23.45;38.86;102481.47;4969918;28;45387;-68
2021/06/13 11:15:41;;;;;;;;;9.50;9.00;;;;;23.52;38.53;102480.16;4976141;28;45539;-68
2021/06/13 11:18:41;;;;;;;;;13.50;13.50;;;;;23.64;37.09;102488.41;4965358;28;46515;-68
2021/06/13 11:21:20;;;;;;;;;17.00;15.00;;;;;23.70;37.66;102483.56;4942537;28;45563;-68
2021/06/13 11:23:47;;;;;;;;;34.75;30.25;;;;;23.76;36.26;102484.97;4972555;28;45341;-68
2021/06/13 11:26:31;;;;;;;;;14.75;13.25;;;;;23.78;36.90;102479.53;4966315;28;45321;-68
2021/06/13 11:28:56;;;;;;;;;8.50;5.75;;;;;23.78;36.20;102474.16;4964140;28;45250;-68
2021/06/13 11:31:24;;;;;;;;;22.00;20.75;;;;;23.79;37.02;102470.50;4962877;28;45517;-68
2021/06/13 11:33:52;;;;;;;;;45.75;36.25;;;;;23.84;37.43;102468.41;4975351;28;45341;-69
2021/06/13 11:36:22;;;;;;;;;61.25;48.25;;;;;23.90;36.62;102461.78;4981067;28;45290;-68
2021/06/13 11:39:12;;;;;;;;;42.25;33.50;;;;;23.94;36.73;102464.19;4980729;28;45444;-69
2021/06/13 11:41:45;;;;;;;;;11.25;10.00;;;;;24.00;36.71;102456.69;4978509;28;45396;-69
2021/06/13 11:44:34;;;;;;;;;8.00;8.00;;;;;24.02;35.15;102458.31;4981692;28;45458;-68
2021/06/13 11:47:19;;;;;;;;;18.75;15.25;;;;;24.04;36.00;102445.66;4975204;28;45583;-68
2021/06/13 11:49:46;;;;;;;;;19.00;15.25;;;;;24.08;35.21;102453.50;4964448;28;45513;-68
2021/06/13 11:52:13;;;;;;;;;53.00;39.25;;;;;24.14;36.73;102450.44;4963748;28;46526;-68
2021/06/13 11:54:39;;;;;;;;;35.50;31.75;;;;;24.20;36.10;102447.34;4982025;28;45621;-68
2021/06/13 11:57:14;;;;;;;;;30.50;25.50;;;;;24.24;36.82;102448.00;4980650;28;45518;-69
2021/06/13 11:59:44;;;;;;;;;40.00;32.00;;;;;24.20;37.64;102451.88;4972654;28;45468;-69
2021/06/13 12:02:11;;;;;;;;;32.25;28.75;;;;;24.13;37.50;102440.63;4980386;28;48306;-69
2021/06/13 12:04:37;;;;;;;;;24.25;21.50;;;;;24.07;37.35;102435.66;4965907;28;45350;-69
2021/06/13 12:07:08;;;;;;;;;37.50;29.75;;;;;24.07;36.30;102430.31;4971461;28;45497;-69
2021/06/13 12:09:34;;;;;;;;;25.25;23.75;;;;;24.14;36.95;102426.25;4979120;28;46562;-68
2021/06/13 12:12:01;;;;;;;;;13.50;11.75;;;;;24.21;35.27;102424.03;4977915;28;46291;-68
2021/06/13 12:14:28;;;;;;;;;10.00;8.50;;;;;24.21;35.11;102422.22;4973026;28;45364;-68
2021/06/13 12:16:59;;;;;;;;;9.50;9.00;;;;;24.25;35.03;102415.69;4977222;28;45312;-68
2021/06/13 12:19:46;;;;;;;;;3.75;2.75;;;;;24.26;33.57;102406.69;4967966;28;45658;-68
2021/06/13 12:22:39;;;;;;;;;9.25;8.25;;;;;24.35;34.28;102401.66;4972932;28;45360;-68
2021/06/13 12:27:48;;;;;;;;;3.25;2.00;;;;;24.45;33.22;102405.47;4968191;28;45302;-68
2021/06/13 12:30:19;;;;;;;;;4.00;3.00;;;;;24.51;34.45;102401.50;4978889;28;45458;-68
2021/06/13 12:33:07;;;;;;;;;2.00;2.00;;;;;24.59;34.35;102403.69;4970297;28;46192;-68
2021/06/13 12:35:40;;;;;;;;;3.00;2.00;;;;;24.62;34.50;102398.09;4968660;28;45470;-68
2021/06/13 12:38:09;;;;;;;;;5.50;3.25;;;;;24.67;33.87;102395.94;4971663;28;45709;-68
2021/06/13 12:40:49;;;;;;;;;5.50;5.50;;;;;24.68;33.48;102397.69;4979566;28;46989;-68
2021/06/13 12:43:16;;;;;;;;;4.25;4.25;;;;;24.72;34.14;102385.75;4967612;28;45593;-68
2021/06/13 12:45:44;;;;;;;;;4.25;4.25;;;;;24.70;33.52;102385.00;4963344;28;45516;-68
2021/06/13 12:48:11;;;;;;;;;4.00;2.00;;;;;24.75;32.37;102382.00;4976826;28;46316;-68
2021/06/13 12:50:42;;;;;;;;;3.25;3.25;;;;;24.78;33.41;102380.94;4975768;28;45293;-68
2021/06/13 12:53:12;;;;;;;;;5.25;3.00;;;;;24.77;33.76;102373.84;4981088;28;45467;-68
2021/06/13 12:55:46;;;;;;;;;5.00;5.00;;;;;24.78;34.64;102368.34;4978967;28;45608;-68
2021/06/13 12:58:20;;;;;;;;;3.25;3.25;;;;;24.73;35.25;102363.28;4978773;28;45344;-68
2021/06/13 13:00:47;;;;;;;;;3.00;2.25;;;;;24.70;32.56;102368.00;4965641;28;45242;-68
2021/06/13 13:03:23;;;;;;;;;2.25;2.00;;;;;24.81;31.93;102354.72;4974297;28;46066;-68
2021/06/13 13:06:04;;;;;;;;;10.00;9.25;;;;;24.84;32.73;102364.38;4976079;28;45242;-68
2021/06/13 13:08:40;;;;;;;;;8.00;6.75;;;;;24.83;32.78;102368.91;4971826;28;45280;-68
2021/06/13 13:11:07;;;;;;;;;6.50;6.50;;;;;24.91;33.66;102371.06;4978904;28;45438;-68
2021/06/13 13:13:42;;;;;;;;;6.00;6.00;;;;;24.86;34.71;102364.28;4971756;28;45404;-68
2021/06/13 13:16:23;;;;;;;;;7.25;5.00;;;;;24.69;34.88;102360.91;4978157;28;45583;-68
2021/06/13 13:18:49;;;;;;;;;4.00;3.00;;;;;24.68;33.83;102357.38;4975402;28;45675;-68
2021/06/13 13:21:38;;;;;;;;;4.50;3.50;;;;;24.76;33.09;102355.97;4983516;28;47048;-68
2021/06/13 13:24:05;;;;;;;;;3.00;3.00;;;;;24.77;32.86;102352.34;4975548;28;46471;-68
2021/06/13 13:26:31;;;;;;;;;3.75;3.75;;;;;24.84;32.21;102348.25;4972396;28;46032;-68
2021/06/13 13:28:58;;;;;;;;;2.00;2.00;;;;;24.89;33.14;102356.00;4966922;28;45418;-68
2021/06/13 13:31:27;;;;;;;;;4.25;4.25;;;;;24.88;33.22;102347.06;4975409;28;46869;-68
2021/06/13 13:34:04;;;;;;;;;2.00;2.00;;;;;24.99;31.33;102351.69;4966470;28;48014;-68
2021/06/13 13:36:36;;;;;;;;;4.00;4.00;;;;;24.94;33.69;102349.31;4969130;28;47413;-68
2021/06/13 13:39:28;;;;;;;;;1.00;1.00;;;;;24.94;33.11;102349.31;4963455;28;45442;-68
2021/06/13 13:42:00;;;;;;;;;1.00;1.00;;;;;25.04;32.03;102349.56;4963410;28;46788;-68
2021/06/13 13:44:29;;;;;;;;;2.00;2.00;;;;;25.14;32.26;102349.78;4985983;28;48104;-68
2021/06/13 13:47:12;;;;;;;;;1.00;1.00;;;;;25.23;31.28;102348.28;4975815;28;45799;-69
2021/06/13 13:49:39;;;;;;;;;3.00;3.00;;;;;25.28;32.50;102345.28;4971693;28;45408;-69
2021/06/13 13:52:15;;;;;;;;;2.50;2.50;;;;;25.28;32.59;102338.06;4975601;28;45585;-68
2021/06/13 13:54:40;;;;;;;;;1.50;1.50;;;;;25.27;32.69;102339.03;4970464;28;45655;-68
2021/06/13 13:57:08;;;;;;;;;0.75;0.75;;;;;25.22;33.59;102325.03;4960408;28;45375;-68
2021/06/13 13:59:36;;;;;;;;;2.00;2.00;;;;;25.11;34.19;102315.06;4972890;28;45248;-68
2021/06/13 14:02:03;;;;;;;;;2.00;2.00;;;;;25.02;33.30;102318.38;4979928;28;45233;-68
2021/06/13 14:04:29;;;;;;;;;1.75;1.75;;;;;25.09;33.89;102306.22;4980137;28;46685;-68
2021/06/13 14:06:55;;;;;;;;;1.75;1.75;;;;;25.14;34.15;102309.44;4974510;28;45490;-68
2021/06/13 14:09:21;;;;;;;;;2.50;2.50;;;;;25.14;33.16;102308.56;4978771;28;45427;-69
2021/06/13 14:11:48;;;;;;;;;1.75;1.75;;;;;25.17;34.13;102306.53;4973674;28;47334;-69
2021/06/13 14:14:16;;;;;;;;;2.00;2.00;;;;;25.25;33.79;102310.50;4979420;28;46598;-69
2021/06/13 14:16:42;;;;;;;;;3.00;2.00;;;;;25.15;33.83;102299.53;4974351;28;45790;-69
2021/06/13 14:19:07;;;;;;;;;3.50;2.75;;;;;25.13;34.47;102296.97;4971193;28;45520;-69
2021/06/13 14:21:33;;;;;;;;;2.00;2.00;;;;;25.16;34.20;102294.03;4979076;28;46555;-69
2021/06/13 14:23:58;;;;;;;;;1.75;1.75;;;;;25.21;32.71;102301.78;4966971;28;46168;-68
2021/06/13 14:26:33;;;;;;;;;2.25;1.00;;;;;25.31;33.74;102290.38;4976560;28;46352;-68
2021/06/13 14:28:58;;;;;;;;;2.00;2.00;;;;;25.38;33.54;102283.59;4980959;28;45439;-68
2021/06/13 14:31:24;;;;;;;;;3.50;3.50;;;;;25.45;33.16;102278.59;4971253;28;45246;-69
2021/06/13 14:33:49;;;;;;;;;2.00;2.00;;;;;25.52;33.25;102279.88;4978951;28;45404;-69
2021/06/13 14:36:14;;;;;;;;;2.00;1.50;;;;;25.56;32.79;102275.16;4969077;28;45269;-69
2021/06/13 14:38:40;;;;;;;;;2.00;1.00;;;;;25.65;31.36;102276.28;4965143;28;45574;-69
2021/06/13 14:41:06;;;;;;;;;1.00;1.00;;;;;25.74;32.43;102283.69;4975923;28;45541;-69
2021/06/13 14:43:32;;;;;;;;;2.00;2.00;;;;;25.82;31.45;102277.75;4970954;28;47200;-69
2021/06/13 14:46:01;;;;;;;;;1.00;1.00;;;;;25.94;31.46;102282.22;4971187;28;45348;-69
2021/06/13 14:48:27;;;;;;;;;2.00;1.25;;;;;26.01;31.48;102277.22;4974799;28;45185;-69
2021/06/13 14:50:52;;;;;;;;;4.00;3.00;;;;;26.04;32.11;102276.13;4969466;28;46319;-69
2021/06/13 14:53:18;;;;;;;;;2.00;1.00;;;;;26.00;31.54;102267.41;4980537;28;45452;-69
2021/06/13 14:55:43;;;;;;;;;1.00;1.00;;;;;25.97;32.40;102262.28;4977369;28;45557;-69
2021/06/13 14:58:08;;;;;;;;;2.00;2.00;;;;;25.89;33.13;102262.00;4977717;28;45389;-69
2021/06/13 15:00:34;;;;;;;;;2.75;2.75;;;;;25.76;32.52;102262.03;4963750;28;45531;-69
2021/06/13 15:03:00;;;;;;;;;3.00;2.00;;;;;25.76;32.99;102259.34;4982485;28;45566;-69
2021/06/13 15:05:26;;;;;;;;;3.75;2.25;;;;;25.71;31.80;102274.00;4972540;28;45366;-69
2021/06/13 15:07:51;;;;;;;;;3.50;3.50;;;;;25.78;31.30;102266.34;4979371;28;45297;-69
2021/06/13 15:10:17;;;;;;;;;2.00;2.00;;;;;25.87;31.94;102261.25;4973134;28;45521;-69
2021/06/13 15:12:42;;;;;;;;;1.00;1.00;;;;;25.95;31.64;102262.38;4976095;28;45491;-69
2021/06/13 15:15:10;;;;;;;;;1.50;1.50;;;;;26.01;31.35;102263.75;4982569;28;45348;-69
2021/06/13 15:17:35;;;;;;;;;1.50;1.50;;;;;26.09;31.82;102262.31;4979307;28;45672;-69
2021/06/13 15:20:00;;;;;;;;;1.50;1.50;;;;;26.14;31.63;102260.13;4981342;28;45301;-68
2021/06/13 15:22:26;;;;;;;;;1.75;1.75;;;;;26.13;32.49;102247.63;4990289;28;45472;-69
2021/06/13 15:24:51;;;;;;;;;1.00;1.00;;;;;26.14;31.99;102238.59;4980296;28;45208;-68
2021/06/13 15:27:16;;;;;;;;;1.00;1.00;;;;;26.14;32.75;102244.84;4963751;28;45280;-69
2021/06/13 15:29:46;;;;;;;;;1.50;1.50;;;;;26.21;31.95;102239.81;4969605;28;45164;-69
2021/06/13 15:32:14;;;;;;;;;2.00;2.00;;;;;26.11;32.30;102234.28;4973362;28;45320;-69
2021/06/13 15:34:40;;;;;;;;;2.00;2.00;;;;;25.94;32.99;102243.66;4980570;28;45345;-69
2021/06/13 15:37:06;;;;;;;;;1.00;1.00;;;;;25.92;32.08;102234.84;4981442;28;45300;-68
2021/06/13 15:39:32;;;;;;;;;1.50;1.00;;;;;25.93;32.30;102231.16;4976383;28;46239;-69
2021/06/13 15:42:00;;;;;;;;;4.00;2.75;;;;;25.97;32.45;102232.66;4962380;28;46329;-69
2021/06/13 15:44:27;;;;;;;;;2.25;2.00;;;;;25.94;32.83;102232.88;4962893;28;45191;-69
2021/06/13 15:46:56;;;;;;;;;1.00;1.00;;;;;25.94;32.09;102217.59;4974171;28;45617;-69
2021/06/13 15:49:22;;;;;;;;;2.00;2.00;;;;;26.03;33.19;102210.63;4963975;28;45550;-68
2021/06/13 15:51:48;;;;;;;;;1.50;1.50;;;;;26.07;32.87;102212.13;4977137;28;46758;-69
2021/06/13 15:54:15;;;;;;;;;3.25;1.00;;;;;26.10;32.49;102212.88;4978105;28;45273;-69
2021/06/13 15:56:40;;;;;;;;;2.00;2.00;;;;;26.09;32.48;102211.13;4978937;28;45384;-69
2021/06/13 15:59:25;;;;;;;;;5.00;3.25;;;;;26.08;32.28;102204.88;4979115;28;46167;-68
2021/06/13 16:01:50;;;;;;;;;2.00;2.00;;;;;26.12;32.61;102198.31;4963657;28;46308;-68
2021/06/13 16:04:17;;;;;;;;;3.00;3.00;;;;;26.19;32.80;102204.06;4972711;28;45772;-68
2021/06/13 16:06:42;;;;;;;;;2.00;2.00;;;;;26.24;32.36;102204.56;4981357;28;45323;-68
2021/06/13 16:09:07;;;;;;;;;2.00;2.00;;;;;26.28;31.15;102202.47;4978142;28;45486;-68
2021/06/13 16:11:33;;;;;;;;;1.00;1.00;;;;;26.31;32.24;102202.25;4964554;28;45997;-68
2021/06/13 16:13:58;;;;;;;;;4.75;4.75;;;;;26.30;31.85;102193.31;4977076;28;45400;-68
2021/06/13 16:16:24;;;;;;;;;2.00;2.00;;;;;26.32;32.00;102193.19;4978418;28;45601;-68
2021/06/13 16:18:49;;;;;;;;;3.25;2.00;;;;;26.35;32.85;102192.09;4976951;28;45313;-68
2021/06/13 16:21:15;;;;;;;;;2.00;2.00;;;;;26.34;31.86;102185.84;4988091;28;46371;-69
2021/06/13 16:23:40;;;;;;;;;1.25;1.00;;;;;26.30;32.10;102185.22;4982229;28;45378;-68
2021/06/13 16:26:06;;;;;;;;;2.00;2.00;;;;;26.32;32.34;102187.81;4966975;28;45432;-69
2021/06/13 16:28:31;;;;;;;;;3.00;1.00;;;;;26.35;32.34;102184.03;4976221;28;46897;-69
2021/06/13 16:30:57;;;;;;;;;3.00;3.00;;;;;26.38;31.48;102175.66;4981453;28;45307;-69
2021/06/13 16:33:22;;;;;;;;;3.00;2.00;;;;;26.43;31.73;102168.13;4974448;28;45355;-69
2021/06/13 16:35:48;;;;;;;;;2.75;2.00;;;;;26.45;31.37;102170.69;4966875;28;45386;-69
2021/06/13 16:38:14;;;;;;;;;2.00;1.75;;;;;26.47;31.72;102166.06;4964326;28;45523;-68
2021/06/13 16:40:39;;;;;;;;;2.00;2.00;;;;;26.46;31.28;102170.56;4963614;28;48202;-69
2021/06/13 16:43:04;;;;;;;;;2.00;2.00;;;;;26.47;31.64;102172.28;4964843;28;45298;-69
2021/06/13 16:45:30;;;;;;;;;2.75;1.75;;;;;26.46;31.45;102169.72;4973869;28;45333;-69
2021/06/13 16:47:56;;;;;;;;;2.50;2.50;;;;;26.46;32.27;102165.19;4973619;28;45578;-69
2021/06/13 16:50:22;;;;;;;;;3.25;2.00;;;;;26.43;32.01;102168.13;4982351;28;45548;-69
2021/06/13 16:52:47;;;;;;;;;3.00;1.75;;;;;26.39;32.32;102155.84;4985733;28;45431;-69
2021/06/13 16:55:13;;;;;;;;;1.25;1.25;;;;;26.35;31.90;102160.59;4980754;28;45313;-69
2021/06/13 16:57:38;;;;;;;;;4.00;3.00;;;;;26.34;31.71;102160.72;4976307;28;45346;-69
2021/06/13 17:00:06;;;;;;;;;2.75;2.00;;;;;26.37;32.25;102160.50;4977535;28;45322;-68
2021/06/13 17:02:31;;;;;;;;;4.00;1.50;;;;;26.34;31.88;102160.72;4976505;28;45298;-69
2021/06/13 17:04:57;;;;;;;;;2.25;2.25;;;;;26.32;32.19;102166.25;4972256;28;45587;-69
2021/06/13 17:07:23;;;;;;;;;4.25;2.00;;;;;26.32;32.28;102171.66;4978325;28;47564;-69
2021/06/13 17:09:52;;;;;;;;;2.00;2.00;;;;;26.30;31.94;102163.66;4980850;28;46459;-69
2021/06/13 17:12:19;;;;;;;;;1.00;1.00;;;;;26.28;31.73;102156.66;4964369;28;45302;-69
2021/06/13 17:14:45;;;;;;;;;5.25;2.25;;;;;26.26;32.27;102164.88;4969409;28;45455;-69
2021/06/13 17:17:11;;;;;;;;;6.25;2.75;;;;;26.25;32.28;102167.72;4980026;28;45281;-69
2021/06/13 17:19:38;;;;;;;;;2.00;2.00;;;;;26.22;32.78;102170.63;4978897;28;46435;-70
2021/06/13 17:22:04;;;;;;;;;2.25;1.75;;;;;26.18;31.85;102175.41;4987344;28;45531;-69
2021/06/13 17:24:29;;;;;;;;;2.75;2.75;;;;;26.09;33.14;102170.72;4978777;28;45528;-69
2021/06/13 17:26:56;;;;;;;;;2.75;2.75;;;;;26.00;33.13;102173.16;4970409;28;45495;-69
2021/06/13 17:29:21;;;;;;;;;3.00;2.00;;;;;25.96;32.66;102171.66;4972886;28;45365;-69
2021/06/13 17:31:46;;;;;;;;;3.25;2.00;;;;;25.94;32.46;102173.63;4973137;28;45319;-69
2021/06/13 17:34:13;;;;;;;;;3.00;3.00;;;;;25.92;32.64;102170.19;4960532;28;45290;-69
2021/06/13 17:36:39;;;;;;;;;3.00;2.50;;;;;25.95;31.62;102169.97;4972913;28;46068;-69
2021/06/13 17:39:08;;;;;;;;;3.00;3.00;;;;;25.95;32.97;102159.19;4977564;28;45409;-69
2021/06/13 17:41:45;;;;;;;;;3.00;3.00;;;;;25.89;32.54;102160.53;4970337;28;45227;-69
2021/06/13 17:44:12;;;;;;;;;2.50;2.00;;;;;25.87;32.53;102164.31;4973658;28;45464;-69
2021/06/13 17:46:38;;;;;;;;;3.00;3.00;;;;;25.88;31.66;102158.78;4979912;28;45526;-69
2021/06/13 17:49:05;;;;;;;;;2.75;2.75;;;;;25.93;32.08;102158.44;4970012;28;47929;-69
2021/06/13 17:51:31;;;;;;;;;2.75;1.75;;;;;25.92;32.78;102156.75;4973179;28;45457;-69
2021/06/13 17:53:57;;;;;;;;;4.75;3.75;;;;;25.88;32.46;102153.41;4977224;28;45997;-69
2021/06/13 17:56:22;;;;;;;;;3.00;2.00;;;;;25.87;32.57;102148.16;4962185;28;47158;-69
2021/06/13 17:58:47;;;;;;;;;2.00;2.00;;;;;25.86;32.76;102144.59;4974132;28;45922;-69
2021/06/13 18:01:13;;;;;;;;;3.25;3.25;;;;;25.85;33.17;102142.91;4966877;28;45505;-69
2021/06/13 18:03:38;;;;;;;;;2.25;2.25;;;;;25.83;32.34;102137.59;4960839;28;45444;-69
2021/06/13 18:06:03;;;;;;;;;2.00;1.00;;;;;25.82;33.09;102138.59;4965877;28;45215;-69
2021/06/13 18:08:29;;;;;;;;;1.00;1.00;;;;;25.80;32.78;102135.16;4972145;28;46125;-69
2021/06/13 18:10:54;;;;;;;;;3.00;3.00;;;;;25.76;32.41;102139.06;4972852;28;45301;-69
2021/06/13 18:13:19;;;;;;;;;2.50;2.50;;;;;25.76;32.20;102135.50;4975567;28;45500;-66
2021/06/13 18:15:45;;;;;;;;;3.00;3.00;;;;;25.76;32.34;102133.66;4974168;28;45159;-66
2021/06/13 18:18:10;;;;;;;;;5.50;3.50;;;;;25.76;32.75;102136.38;4978849;28;45351;-66
2021/06/13 18:20:36;;;;;;;;;2.75;2.75;;;;;25.77;32.23;102148.88;4982287;28;45468;-66
2021/06/13 18:23:02;;;;;;;;;11.00;11.00;;;;;25.75;32.57;102145.44;4980412;28;45388;-66
2021/06/13 18:25:27;;;;;;;;;1.75;1.75;;;;;25.71;31.64;102135.81;4976864;28;46858;-68
2021/06/13 18:27:53;;;;;;;;;2.00;2.00;;;;;25.69;33.04;102137.78;4980947;28;45300;-69
2021/06/13 18:30:19;;;;;;;;;2.25;2.25;;;;;25.67;32.90;102134.34;4978382;28;45311;-69
2021/06/13 18:32:44;;;;;;;;;3.00;1.50;;;;;25.62;32.81;102138.25;4967902;28;45554;-69
2021/06/13 18:35:10;;;;;;;;;4.00;3.50;;;;;25.57;32.55;102134.19;4972462;28;45287;-69
2021/06/13 18:37:36;;;;;;;;;2.00;2.00;;;;;25.48;32.38;102131.22;4967629;28;46127;-80
2021/06/13 18:40:03;;;;;;;;;3.00;3.00;;;;;25.49;32.60;102126.69;4972089;28;45226;-80
2021/06/13 18:42:28;;;;;;;;;2.75;2.75;;;;;25.48;32.53;102128.50;4981312;28;45433;-80
2021/06/13 18:44:54;;;;;;;;;2.00;2.00;;;;;25.47;32.53;102121.44;4981196;28;45592;-80
2021/06/13 18:47:19;;;;;;;;;3.00;2.00;;;;;25.48;32.45;102115.06;4983011;28;45210;-80